createdAt,value
2023-05-19T00:00:02.263Z,99994.47
2023-05-19T00:02:39.791Z,99970.94
2023-05-19T00:05:07.949Z,100013.94
2023-05-19T00:07:38.315Z,100004.44
2023-05-19T00:10:06.842Z,100021.25
2023-05-19T00:12:34.202Z,100011.63
2023-05-19T00:15:01.844Z,100025.66
2023-05-19T00:17:34.573Z,99999.22
2023-05-19T00:20:01.909Z,100021.09
2023-05-19T00:22:31.207Z,100016.72
2023-05-19T00:24:58.422Z,100032.66
2023-05-19T00:27:25.465Z,100032.66
2023-05-19T00:29:52.619Z,100012.47
2023-05-19T00:32:19.850Z,100029.97
2023-05-19T00:34:48.574Z,100032.53
2023-05-19T00:37:17.669Z,100036.00
2023-05-19T00:39:45.326Z,100034.19
2023-05-19T00:42:12.796Z,100036.84
2023-05-19T00:44:41.544Z,100035.06
2023-05-19T00:47:09.335Z,100032.47
2023-05-19T00:49:36.498Z,100029.00
2023-05-19T00:52:06.474Z,100034.34
2023-05-19T00:54:34.983Z,100037.84
2023-05-19T00:57:03.697Z,100044.88
2023-05-19T00:59:31.017Z,100039.63
2023-05-19T01:01:58.302Z,99997.56
2023-05-19T01:04:26.660Z,100041.56
2023-05-19T01:06:57.078Z,100008.28
2023-05-19T01:09:24.247Z,100043.56
2023-05-19T01:11:51.298Z,100038.38
2023-05-19T01:14:20.073Z,100026.19
2023-05-19T01:16:59.706Z,100041.22
2023-05-19T01:20:14.103Z,100054.38
2023-05-19T01:22:56.699Z,100036.81
2023-05-19T01:25:53.174Z,100051.84
2023-05-19T01:28:20.326Z,100055.47
2023-05-19T01:30:52.875Z,100060.84
2023-05-19T01:33:21.892Z,100059.97
2023-05-19T01:35:50.454Z,100062.66
2023-05-19T01:38:20.770Z,100060.84
2023-05-19T01:40:53.121Z,100067.09
2023-05-19T01:43:24.402Z,100063.59
2023-05-19T01:45:53.626Z,100071.59
2023-05-19T01:48:23.372Z,100070.84
2023-05-19T01:50:51.298Z,100040.97
2023-05-19T01:53:18.532Z,100079.00
2023-05-19T01:55:49.775Z,100073.03
2023-05-19T01:58:35.280Z,100080.34
2023-05-19T02:01:34.197Z,100059.44
2023-05-19T02:04:13.450Z,100085.00
2023-05-19T02:07:07.559Z,100052.53
2023-05-19T02:09:44.868Z,100094.72
2023-05-19T02:12:21.823Z,100084.09
2023-05-19T02:15:06.402Z,100104.50
2023-05-19T02:17:40.595Z,100077.31
2023-05-19T02:20:12.150Z,100066.84
2023-05-19T02:22:39.754Z,100091.56
2023-05-19T02:25:08.313Z,100088.09
2023-05-19T02:27:38.858Z,100089.03
2023-05-19T02:30:08.522Z,100098.78
2023-05-19T02:32:37.790Z,100095.34
2023-05-19T02:35:05.561Z,100082.19
2023-05-19T02:37:32.766Z,100090.88
2023-05-19T02:39:59.852Z,100093.53
2023-05-19T02:42:26.973Z,100108.53
2023-05-19T02:44:55.033Z,100088.31
2023-05-19T02:47:22.475Z,100104.13
2023-05-19T02:49:49.562Z,100070.72
2023-05-19T02:52:16.791Z,100106.75
2023-05-19T02:54:44.081Z,100116.59
2023-05-19T02:57:11.405Z,100065.03
2023-05-19T02:59:38.579Z,100082.75
2023-05-19T03:02:05.797Z,100118.94
2023-05-19T03:04:33.036Z,100084.72
2023-05-19T03:07:00.304Z,100118.25
2023-05-19T03:09:27.453Z,100095.63
2023-05-19T03:11:54.532Z,100143.16
2023-05-19T03:14:24.287Z,100108.03
2023-05-19T03:16:51.893Z,100107.25
2023-05-19T03:19:19.385Z,100116.97
2023-05-19T03:21:47.744Z,100124.06
2023-05-19T03:24:15.056Z,100124.94
2023-05-19T03:26:42.970Z,100117.09
2023-05-19T03:29:10.252Z,100160.22
2023-05-19T03:31:38.235Z,100160.22
2023-05-19T03:34:05.806Z,100153.19
2023-05-19T03:36:33.072Z,100162.84
2023-05-19T03:39:01.224Z,100149.66
2023-05-19T03:41:29.555Z,100161.13
2023-05-19T03:43:56.693Z,100169.09
2023-05-19T03:46:24.045Z,100175.25
2023-05-19T03:48:54.554Z,100176.09
2023-05-19T03:51:51.227Z,100187.59
2023-05-19T03:54:26.431Z,100184.03
2023-05-19T03:56:53.564Z,100186.66
2023-05-19T03:59:20.827Z,100157.59
2023-05-19T04:01:48.995Z,100164.63
2023-05-19T04:04:16.072Z,100176.00
2023-05-19T04:06:45.891Z,100182.13
2023-05-19T04:09:14.805Z,100182.97
2023-05-19T04:11:43.083Z,100186.47
2023-05-19T04:14:10.195Z,100184.72
2023-05-19T04:16:38.344Z,100175.88
2023-05-19T04:19:06.013Z,100199.66
2023-05-19T04:21:33.483Z,100165.31
2023-05-19T04:24:00.634Z,100193.47
2023-05-19T04:26:31.031Z,100197.88
2023-05-19T04:28:58.355Z,100193.44
2023-05-19T04:31:25.839Z,100167.00
2023-05-19T04:33:53.616Z,100188.06
2023-05-19T04:36:22.592Z,100196.91
2023-05-19T04:38:55.059Z,100191.59
2023-05-19T04:41:25.812Z,100198.72
2023-05-19T04:43:53.288Z,100170.59
2023-05-19T04:46:24.503Z,100194.38
2023-05-19T04:48:55.567Z,100190.88
2023-05-19T04:51:30.292Z,100190.03
2023-05-19T04:54:01.735Z,100183.94
2023-05-19T04:56:29.072Z,100204.22
2023-05-19T04:58:57.257Z,100198.09
2023-05-19T05:01:26.590Z,100191.94
2023-05-19T05:03:56.153Z,100192.84
2023-05-19T05:06:23.427Z,100195.50
2023-05-19T05:08:51.520Z,100183.16
2023-05-19T05:11:19.139Z,100209.59
2023-05-19T05:13:47.414Z,100212.22
2023-05-19T05:16:15.456Z,100207.81
2023-05-19T05:18:44.854Z,100216.63
2023-05-19T05:21:13.156Z,100218.41
2023-05-19T05:23:41.181Z,100217.50
2023-05-19T05:26:19.263Z,100170.84
2023-05-19T05:28:49.554Z,100235.16
2023-05-19T05:31:17.415Z,100218.38
2023-05-19T05:33:45.669Z,100232.47
2023-05-19T05:36:14.980Z,100237.81
2023-05-19T05:38:42.322Z,100236.03
2023-05-19T05:41:09.595Z,100229.88
2023-05-19T05:43:37.882Z,100226.31
2023-05-19T05:46:05.380Z,100241.31
2023-05-19T05:48:32.782Z,100237.75
2023-05-19T05:51:00.887Z,100250.09
2023-05-19T05:53:37.251Z,100249.22
2023-05-19T05:56:05.197Z,100250.13
2023-05-19T05:58:40.930Z,100251.91
2023-05-19T06:01:11.757Z,100258.03
2023-05-19T06:03:41.299Z,100256.28
2023-05-19T06:06:11.224Z,100254.53
2023-05-19T06:08:39.565Z,100236.03
2023-05-19T06:11:09.632Z,100244.84
2023-05-19T06:13:41.543Z,100264.22
2023-05-19T06:16:12.659Z,100263.31
2023-05-19T06:18:43.960Z,100230.72
2023-05-19T06:21:13.599Z,100250.13
2023-05-19T06:23:42.204Z,100264.22
2023-05-19T06:26:11.146Z,100269.50
2023-05-19T06:28:38.434Z,100253.63
2023-05-19T06:31:06.261Z,100272.13
2023-05-19T06:33:42.991Z,100273.88
2023-05-19T06:36:10.848Z,100252.75
2023-05-19T06:38:40.133Z,100270.34
2023-05-19T06:41:07.468Z,100260.66
2023-05-19T06:43:35.023Z,100276.53
2023-05-19T06:46:05.177Z,100282.69
2023-05-19T06:48:33.728Z,100269.47
2023-05-19T06:51:00.975Z,100271.25
2023-05-19T06:53:28.141Z,100278.28
2023-05-19T06:55:59.802Z,100283.56
2023-05-19T06:58:31.399Z,100260.69
2023-05-19T07:00:59.167Z,100277.47
2023-05-19T07:03:31.406Z,100276.56
2023-05-19T07:05:59.709Z,100278.34
2023-05-19T07:08:28.555Z,100286.25
2023-05-19T07:10:56.496Z,100280.09
2023-05-19T07:13:25.933Z,100286.25
2023-05-19T07:15:58.008Z,100283.59
2023-05-19T07:18:30.288Z,100275.66
2023-05-19T07:20:58.552Z,100295.94
2023-05-19T07:23:25.879Z,100280.03
2023-05-19T07:25:56.865Z,100286.16
2023-05-19T07:28:24.355Z,100262.41
2023-05-19T07:30:52.165Z,100293.25
2023-05-19T07:33:19.349Z,100286.19
2023-05-19T07:35:46.577Z,100287.94
2023-05-19T07:38:13.763Z,100287.03
2023-05-19T07:40:40.922Z,100293.16
2023-05-19T07:43:07.999Z,100291.38
2023-05-19T07:45:35.200Z,100270.19
2023-05-19T07:48:02.468Z,100281.63
2023-05-19T07:50:29.635Z,100281.69
2023-05-19T07:52:56.824Z,100286.94
2023-05-19T07:55:23.865Z,100276.34
2023-05-19T07:57:51.122Z,100281.59
2023-05-19T08:00:18.495Z,100279.75
2023-05-19T08:02:45.897Z,100285.84
2023-05-19T08:05:13.179Z,100277.63
2023-05-19T08:07:40.337Z,100284.31
2023-05-19T08:10:07.992Z,100273.50
2023-05-19T08:12:34.995Z,100277.66
2023-05-19T08:15:02.218Z,100269.53
2023-05-19T08:17:32.059Z,100281.31
2023-05-19T08:20:00.477Z,100247.59
2023-05-19T08:22:28.235Z,100285.94
2023-05-19T08:24:55.244Z,100278.06
2023-05-19T08:27:22.595Z,100273.50
2023-05-19T08:29:49.844Z,100283.75
2023-05-19T08:32:17.555Z,100282.94
2023-05-19T08:34:44.765Z,100278.72
2023-05-19T08:37:12.078Z,100261.34
2023-05-19T08:39:39.293Z,100278.94
2023-05-19T08:42:10.281Z,100269.78
2023-05-19T08:44:40.166Z,100271.59
2023-05-19T08:47:12.936Z,100278.16
2023-05-19T08:49:45.754Z,100290.00
2023-05-19T08:52:35.653Z,100274.25
2023-05-19T08:55:09.853Z,100286.75
2023-05-19T08:57:38.467Z,100256.03
2023-05-19T09:00:11.317Z,100263.91
2023-05-19T09:02:50.425Z,100282.34
2023-05-19T09:05:27.208Z,100263.34
2023-05-19T09:07:55.268Z,100276.72
2023-05-19T09:10:22.419Z,100267.16
2023-05-19T09:12:49.955Z,100264.78
2023-05-19T09:15:21.110Z,100270.63
2023-05-19T09:17:48.626Z,100267.84
2023-05-19T09:20:17.271Z,100249.19
2023-05-19T09:22:47.948Z,100253.34
2023-05-19T09:25:19.538Z,100275.34
2023-05-19T09:27:48.777Z,100256.75
2023-05-19T09:30:17.765Z,100249.16
2023-05-19T09:32:45.656Z,100250.09
2023-05-19T09:35:13.961Z,100226.28
2023-05-19T09:37:41.638Z,100220.38
2023-05-19T09:40:11.901Z,100230.44
2023-05-19T09:42:41.396Z,100242.59
2023-05-19T09:45:09.484Z,100232.66
2023-05-19T09:47:41.543Z,100247.78
2023-05-19T09:50:12.207Z,100227.28
2023-05-19T09:52:40.944Z,100241.56
2023-05-19T09:55:13.341Z,100221.63
2023-05-19T09:57:40.921Z,100213.28
2023-05-19T10:00:17.574Z,100237.56
2023-05-19T10:02:46.830Z,100236.44
2023-05-19T10:05:17.641Z,100237.09
2023-05-19T10:07:45.986Z,100222.84
2023-05-19T10:10:16.510Z,100211.38
2023-05-19T10:12:43.937Z,100201.19
2023-05-19T10:15:12.963Z,100232.25
2023-05-19T10:17:41.505Z,100235.22
2023-05-19T10:20:16.826Z,100241.09
2023-05-19T10:22:46.227Z,100231.97
2023-05-19T10:25:15.414Z,100231.69
2023-05-19T10:27:51.433Z,100224.56
2023-05-19T10:30:27.192Z,100239.44
2023-05-19T10:32:57.446Z,100226.59
2023-05-19T10:35:43.427Z,100218.28
2023-05-19T10:39:03.045Z,100231.22
2023-05-19T10:42:02.102Z,100233.63
2023-05-19T10:44:38.260Z,100225.47
2023-05-19T10:47:07.693Z,100227.47
2023-05-19T10:49:36.871Z,100234.59
2023-05-19T10:52:04.436Z,100225.91
2023-05-19T10:54:49.891Z,100229.69
2023-05-19T10:57:18.267Z,100227.91
2023-05-19T10:59:45.637Z,100231.31
2023-05-19T11:02:39.980Z,100234.75
2023-05-19T11:05:09.610Z,100235.81
2023-05-19T11:07:36.986Z,100232.66
2023-05-19T11:10:07.856Z,100225.19
2023-05-19T11:12:46.122Z,100235.81
2023-05-19T11:15:16.791Z,100231.28
2023-05-19T11:17:48.984Z,100219.47
2023-05-19T11:20:30.088Z,100218.28
2023-05-19T11:23:07.106Z,100233.63
2023-05-19T11:25:48.492Z,100226.75
2023-05-19T11:28:19.644Z,100208.97
2023-05-19T11:30:52.336Z,100225.81
2023-05-19T11:33:21.670Z,100222.34
2023-05-19T11:35:51.297Z,100214.97
2023-05-19T11:38:23.778Z,100234.75
2023-05-19T11:40:53.889Z,100212.03
2023-05-19T11:43:25.011Z,100238.41
2023-05-19T11:45:54.673Z,100228.06
2023-05-19T11:48:22.620Z,100223.53
2023-05-19T11:50:50.409Z,100228.34
2023-05-19T11:53:19.884Z,100225.84
2023-05-19T11:55:48.969Z,100214.13
2023-05-19T11:58:17.073Z,100207.00
2023-05-19T12:00:48.309Z,100219.78
2023-05-19T12:03:16.194Z,100233.94
2023-05-19T12:05:49.207Z,100233.06
2023-05-19T12:08:18.926Z,100239.66
2023-05-19T12:10:50.892Z,100226.13
2023-05-19T12:13:17.996Z,100231.28
2023-05-19T12:15:45.110Z,100231.41
2023-05-19T12:18:12.400Z,100231.78
2023-05-19T12:20:39.770Z,100218.91
2023-05-19T12:23:07.736Z,100233.34
2023-05-19T12:25:35.534Z,100224.00
2023-05-19T12:28:05.692Z,100233.69
2023-05-19T12:30:34.766Z,100210.88
2023-05-19T12:33:03.329Z,100238.63
2023-05-19T12:35:36.514Z,100237.41
2023-05-19T12:38:05.538Z,100217.19
2023-05-19T12:40:35.553Z,100239.31
2023-05-19T12:43:03.501Z,100242.16
2023-05-19T12:45:35.570Z,100229.56
2023-05-19T12:48:06.839Z,100240.16
2023-05-19T12:50:34.723Z,100206.28
2023-05-19T12:53:02.200Z,100237.72
2023-05-19T12:55:30.163Z,100242.03
2023-05-19T12:57:58.692Z,100229.81
2023-05-19T13:00:29.203Z,100234.59
2023-05-19T13:03:00.108Z,100228.56
2023-05-19T13:05:32.145Z,100237.84
2023-05-19T13:08:06.893Z,100239.53
2023-05-19T13:10:36.306Z,100246.50
2023-05-19T13:13:04.571Z,100215.44
2023-05-19T13:15:36.531Z,100244.84
2023-05-19T13:18:14.473Z,100235.34
2023-05-19T13:20:43.430Z,100239.38
2023-05-19T13:23:11.945Z,100219.31
2023-05-19T13:25:39.328Z,100214.66
2023-05-19T13:28:06.897Z,100213.28
2023-05-19T13:30:35.401Z,100246.47
2023-05-19T13:33:03.342Z,100242.22
2023-05-19T13:35:37.062Z,100219.66
2023-05-19T13:38:06.099Z,100229.00
2023-05-19T13:40:34.782Z,100233.69
2023-05-19T13:43:03.660Z,100243.25
2023-05-19T13:45:31.014Z,100238.84
2023-05-19T13:47:58.477Z,100240.69
2023-05-19T13:50:25.853Z,100232.72
2023-05-19T13:52:53.412Z,100249.91
2023-05-19T13:55:20.753Z,100244.56
2023-05-19T13:57:47.844Z,100243.03
2023-05-19T14:00:15.526Z,100227.63
2023-05-19T14:02:43.365Z,100240.94
2023-05-19T14:05:10.687Z,100242.16
2023-05-19T14:07:38.496Z,100244.59
2023-05-19T14:10:07.022Z,100240.88
2023-05-19T14:12:49.564Z,100240.03
2023-05-19T14:15:23.873Z,100238.47
2023-05-19T14:17:51.158Z,100240.53
2023-05-19T14:20:18.303Z,100252.06
2023-05-19T14:22:45.374Z,100243.81
2023-05-19T14:25:12.480Z,100258.88
2023-05-19T14:27:42.588Z,100255.56
2023-05-19T14:30:09.842Z,100248.16
2023-05-19T14:32:36.949Z,100228.69
2023-05-19T14:35:04.493Z,100234.28
2023-05-19T14:37:32.441Z,100244.78
2023-05-19T14:40:00.207Z,100250.03
2023-05-19T14:42:27.369Z,100239.88
2023-05-19T14:44:54.538Z,100246.94
2023-05-19T14:47:21.782Z,100227.59
2023-05-19T14:49:49.078Z,100234.34
2023-05-19T14:52:16.533Z,100243.97
2023-05-19T14:54:43.644Z,100227.38
2023-05-19T14:57:11.105Z,100217.00
2023-05-19T14:59:38.851Z,100245.22
2023-05-19T15:02:06.548Z,100231.28
2023-05-19T15:04:33.773Z,100219.03
2023-05-19T15:09:31.246Z,100226.56
2023-05-19T15:12:01.343Z,100237.00
2023-05-19T15:14:30.758Z,100245.66
2023-05-19T15:16:58.750Z,100227.53
2023-05-19T15:19:26.249Z,100246.78
2023-05-19T15:21:53.723Z,100230.28
2023-05-19T15:24:21.038Z,100234.94
2023-05-19T15:26:48.154Z,100258.06
2023-05-19T15:29:15.312Z,100226.72
2023-05-19T15:31:42.619Z,100252.06
2023-05-19T15:34:09.912Z,100236.84
2023-05-19T15:36:37.181Z,100235.13
2023-05-19T15:39:05.292Z,100252.88
2023-05-19T15:41:32.498Z,100239.78
2023-05-19T15:44:03.028Z,100255.94
2023-05-19T15:46:30.784Z,100251.72
2023-05-19T15:48:58.204Z,100263.47
2023-05-19T15:51:25.914Z,100263.84
2023-05-19T15:53:54.355Z,100262.44
2023-05-19T15:56:21.764Z,100261.66
2023-05-19T15:58:49.253Z,100258.28
2023-05-19T16:01:16.908Z,100246.09
2023-05-19T16:03:45.377Z,100259.34
2023-05-19T16:06:12.839Z,100250.50
2023-05-19T16:08:40.144Z,100263.78
2023-05-19T16:11:07.361Z,100245.28
2023-05-19T16:13:34.823Z,100261.41
2023-05-19T16:16:02.298Z,100237.66
2023-05-19T16:18:29.761Z,100250.88
2023-05-19T16:20:57.021Z,100230.63
2023-05-19T16:23:25.001Z,100256.00
2023-05-19T16:25:52.402Z,100241.94
2023-05-19T16:28:19.684Z,100228.88
2023-05-19T16:30:47.170Z,100260.41
2023-05-19T16:33:14.219Z,100234.09
2023-05-19T16:35:41.353Z,100262.31
2023-05-19T16:38:09.085Z,100269.50
2023-05-19T16:40:36.503Z,100266.16
2023-05-19T16:43:03.879Z,100229.22
2023-05-19T16:45:31.329Z,100259.28
2023-05-19T16:47:58.450Z,100269.00
2023-05-19T16:50:28.779Z,100261.94
2023-05-19T16:52:55.980Z,100274.41
2023-05-19T16:55:23.116Z,100278.00
2023-05-19T16:57:50.147Z,100246.25
2023-05-19T17:00:17.576Z,100257.03
2023-05-19T17:02:44.960Z,100265.78
2023-05-19T17:05:12.159Z,100271.56
2023-05-19T17:07:39.236Z,100274.50
2023-05-19T17:10:06.728Z,100272.69
2023-05-19T17:12:33.965Z,100263.44
2023-05-19T17:15:02.308Z,100273.94
2023-05-19T17:17:32.037Z,100267.81
2023-05-19T17:19:59.995Z,100268.03
2023-05-19T17:22:28.260Z,100281.88
2023-05-19T17:24:57.688Z,100284.31
2023-05-19T17:27:24.782Z,100288.25
2023-05-19T17:29:52.090Z,100290.28
2023-05-19T17:32:22.755Z,100275.63
2023-05-19T17:34:50.073Z,100298.28
2023-05-19T17:37:19.269Z,100305.88
2023-05-19T17:39:46.376Z,100310.91
2023-05-19T17:42:13.538Z,100298.13
2023-05-19T17:44:41.443Z,100299.47
2023-05-19T17:47:08.521Z,100308.28
2023-05-19T17:49:35.668Z,100307.16
2023-05-19T17:52:03.002Z,100324.28
2023-05-19T17:54:30.403Z,100327.34
2023-05-19T17:56:59.207Z,100327.72
2023-05-19T17:59:26.441Z,100335.81
2023-05-19T18:01:54.027Z,100340.59
2023-05-19T18:04:21.536Z,100337.19
2023-05-19T18:06:52.384Z,100301.31
2023-05-19T18:09:20.282Z,100331.47
2023-05-19T18:11:47.804Z,100336.97
2023-05-19T18:14:15.023Z,100308.16
2023-05-19T18:16:42.282Z,100352.38
2023-05-19T18:19:09.617Z,100357.84
2023-05-19T18:21:36.786Z,100349.06
2023-05-19T18:24:04.622Z,100351.84
2023-05-19T18:26:33.236Z,100348.38
2023-05-19T18:29:02.963Z,100351.91
2023-05-19T18:31:30.106Z,100359.94
2023-05-19T18:33:57.310Z,100359.09
2023-05-19T18:36:24.322Z,100343.28
2023-05-19T18:38:51.480Z,100363.59
2023-05-19T18:41:18.676Z,100370.69
2023-05-19T18:43:45.850Z,100377.75
2023-05-19T18:46:13.721Z,100381.31
2023-05-19T18:48:40.944Z,100240.34
2023-05-19T18:51:09.070Z,100369.00
2023-05-19T18:53:37.640Z,100372.53
2023-05-19T18:56:05.130Z,100347.00
2023-05-19T18:58:32.758Z,100376.09
2023-05-19T19:00:59.932Z,100381.44
2023-05-19T19:03:28.781Z,100366.44
2023-05-19T19:05:57.335Z,100371.72
2023-05-19T19:08:24.721Z,100384.94
2023-05-19T19:10:52.233Z,100391.13
2023-05-19T19:13:19.466Z,100366.44
2023-05-19T19:15:46.659Z,100395.56
2023-05-19T19:18:13.915Z,100394.69
2023-05-19T19:20:41.194Z,100382.31
2023-05-19T19:23:08.401Z,100396.44
2023-05-19T19:25:35.800Z,100361.16
2023-05-19T19:28:03.663Z,100400.81
2023-05-19T19:30:30.769Z,100401.72
2023-05-19T19:32:59.613Z,100389.38
2023-05-19T19:35:26.895Z,100401.69
2023-05-19T19:37:54.053Z,100405.22
2023-05-19T19:40:21.230Z,100406.09
2023-05-19T19:42:48.453Z,100396.34
2023-05-19T19:45:15.910Z,100405.16
2023-05-19T19:47:43.997Z,100396.34
2023-05-19T19:50:11.694Z,100408.66
2023-05-19T19:52:39.133Z,100402.47
2023-05-19T19:55:06.626Z,100407.72
2023-05-19T19:57:34.418Z,100423.56
2023-05-19T20:00:08.490Z,100400.63
2023-05-19T20:02:45.520Z,100408.53
2023-05-19T20:05:19.038Z,100418.25
2023-05-19T20:07:46.167Z,100422.63
2023-05-19T20:10:13.415Z,100415.53
2023-05-19T20:12:40.663Z,100414.66
2023-05-19T20:15:08.455Z,100411.97
2023-05-19T20:17:35.864Z,100438.41
2023-05-19T20:20:08.104Z,100432.16
2023-05-19T20:22:35.384Z,100405.63
2023-05-19T20:25:02.617Z,100430.34
2023-05-19T20:27:31.785Z,100422.38
2023-05-19T20:29:59.019Z,100439.16
2023-05-19T20:32:26.358Z,100442.56
2023-05-19T20:34:53.462Z,100433.75
2023-05-19T20:37:22.309Z,100447.78
2023-05-19T20:39:49.624Z,100451.28
2023-05-19T20:42:16.790Z,100461.84
2023-05-19T20:44:44.111Z,100458.31
2023-05-19T20:47:11.708Z,100455.66
2023-05-19T20:49:39.048Z,100469.69
2023-05-19T20:52:06.432Z,100464.38
2023-05-19T20:54:33.750Z,100454.63
2023-05-19T20:57:01.444Z,100468.66
2023-05-19T20:59:28.599Z,100427.19
2023-05-19T21:01:55.824Z,100453.66
2023-05-19T21:04:22.974Z,100455.44
2023-05-19T21:06:50.222Z,100458.91
2023-05-19T21:09:17.454Z,100443.81
2023-05-19T21:11:45.135Z,100437.53
2023-05-19T21:14:12.268Z,100446.38
2023-05-19T21:16:39.606Z,100461.41
2023-05-19T21:19:07.153Z,100452.47
2023-05-19T21:21:34.369Z,100468.31
2023-05-19T21:24:01.426Z,100448.94
2023-05-19T21:26:28.543Z,100460.38
2023-05-19T21:28:55.730Z,100415.31
2023-05-19T21:31:23.076Z,100456.84
2023-05-19T21:33:50.367Z,100453.34
2023-05-19T21:36:18.417Z,100456.81
2023-05-19T21:38:45.583Z,100436.44
2023-05-19T21:41:12.649Z,100446.13
2023-05-19T21:43:41.360Z,100445.16
2023-05-19T21:46:08.463Z,100445.16
2023-05-19T21:48:35.858Z,100463.69
2023-05-19T21:51:03.180Z,100465.38
2023-05-19T21:53:31.534Z,100460.88
2023-05-19T21:55:59.936Z,100452.88
2023-05-19T21:58:27.013Z,100425.44
2023-05-19T22:00:57.228Z,100451.06
2023-05-19T22:03:24.456Z,100463.41
2023-05-19T22:05:53.055Z,100465.16
2023-05-19T22:08:20.822Z,100433.34
2023-05-19T22:10:52.280Z,100462.53
2023-05-19T22:13:20.474Z,100472.16
2023-05-19T22:15:47.763Z,100467.69
2023-05-19T22:18:14.888Z,100470.47
2023-05-19T22:20:42.109Z,100472.19
2023-05-19T22:23:09.401Z,100449.97
2023-05-19T22:25:36.644Z,100455.22
2023-05-19T22:28:05.737Z,100461.31
2023-05-19T22:30:32.941Z,100470.09
2023-05-19T22:33:00.301Z,100440.03
2023-05-19T22:35:27.470Z,100454.16
2023-05-19T22:37:55.808Z,100473.53
2023-05-19T22:40:22.896Z,100454.06
2023-05-19T22:42:49.961Z,100466.44
2023-05-19T22:45:17.198Z,100448.66
2023-05-19T22:47:44.299Z,100450.44
2023-05-19T22:50:12.398Z,100472.53
2023-05-19T22:52:39.529Z,100446.84
2023-05-19T22:55:07.462Z,100460.94
2023-05-19T22:57:34.626Z,100454.69
2023-05-19T23:00:01.749Z,100444.97
2023-05-19T23:02:33.562Z,100425.50
2023-05-19T23:05:00.956Z,100456.47
2023-05-19T23:07:28.118Z,100473.13
2023-05-19T23:09:55.332Z,100473.16
2023-05-19T23:12:22.505Z,100456.34
2023-05-19T23:14:49.628Z,100455.50
2023-05-19T23:17:16.846Z,100466.00
2023-05-19T23:19:43.929Z,100455.50
2023-05-19T23:22:11.293Z,100459.81
2023-05-19T23:24:38.916Z,100451.94
2023-05-19T23:27:06.263Z,100451.94
2023-05-19T23:29:33.341Z,100451.94
2023-05-19T23:32:00.407Z,100448.41
2023-05-19T23:34:27.483Z,100446.72
2023-05-19T23:36:54.600Z,100452.03
2023-05-19T23:39:22.236Z,100455.56
2023-05-19T23:41:49.314Z,100447.69
2023-05-19T23:44:16.451Z,100437.19
2023-05-19T23:46:43.709Z,100412.53
2023-05-19T23:49:10.931Z,100438.16
2023-05-19T23:51:38.111Z,100445.28
2023-05-19T23:54:05.225Z,100434.00
2023-05-19T23:56:32.220Z,100418.13
2023-05-19T23:58:59.414Z,100403.16
